Time;durP1;ratioP1;P1;durP2;ratioP2;P2;SDS_P1;SDS_P2;PMS_P1;PMS_P2;Temp;Humidity;BMP_temperature;BMP_pressure;BME280_temperature;BME280_humidity;BME280_pressure;Samples;Min_cycle;Max_cycle;Signal;HPM_P1;HPM_P2
2023/09/19 00:00:35;;;;;;;11.30;2.55;;;;;;;;;;5024258;28;20065;-75
2023/09/19 00:03:01;;;;;;;21.48;2.28;;;;;;;;;;5017860;28;20073;-75
2023/09/19 00:05:29;;;;;;;14.93;2.22;;;;;;;;;;5021463;28;20575;-75
2023/09/19 00:07:59;;;;;;;11.75;2.40;;;;;;;;;;5026314;28;20065;-76
2023/09/19 00:10:26;;;;;;;15.52;2.50;;;;;;;;;;5021362;28;20344;-75
2023/09/19 00:12:55;;;;;;;16.40;2.25;;;;;;;;;;5019133;28;20052;-76
2023/09/19 00:15:24;;;;;;;15.80;3.00;;;;;;;;;;5011759;28;20038;-76
2023/09/19 00:17:52;;;;;;;14.10;2.63;;;;;;;;;;5029373;28;20053;-75
2023/09/19 00:20:18;;;;;;;11.20;2.25;;;;;;;;;;5020156;28;20037;-75
2023/09/19 00:22:44;;;;;;;11.75;2.05;;;;;;;;;;5025267;28;20033;-75
2023/09/19 00:25:11;;;;;;;11.27;1.70;;;;;;;;;;5025592;28;20046;-74
2023/09/19 00:27:43;;;;;;;18.27;2.55;;;;;;;;;;5024591;28;20499;-75
2023/09/19 00:30:19;;;;;;;10.70;2.65;;;;;;;;;;5025916;28;20036;-75
2023/09/19 00:32:47;;;;;;;17.15;2.22;;;;;;;;;;5008725;28;20034;-75
2023/09/19 00:35:14;;;;;;;12.85;2.40;;;;;;;;;;5026305;28;20040;-75
2023/09/19 00:37:40;;;;;;;9.82;2.75;;;;;;;;;;5021080;28;20026;-75
2023/09/19 00:40:09;;;;;;;10.05;3.05;;;;;;;;;;5047371;28;20120;-76
2023/09/19 00:42:37;;;;;;;12.10;3.50;;;;;;;;;;5060804;28;20045;-76
2023/09/19 00:45:05;;;;;;;12.07;2.28;;;;;;;;;;5024171;28;20426;-75
2023/09/19 00:47:31;;;;;;;11.27;2.50;;;;;;;;;;5027918;28;20025;-75
2023/09/19 00:49:58;;;;;;;11.00;2.42;;;;;;;;;;5028142;28;20030;-75
2023/09/19 00:52:25;;;;;;;12.38;2.30;;;;;;;;;;5023998;28;20037;-74
2023/09/19 00:54:52;;;;;;;13.50;1.88;;;;;;;;;;5015692;28;20041;-75
2023/09/19 00:57:19;;;;;;;11.20;2.85;;;;;;;;;;5022718;28;20037;-74
2023/09/19 00:59:45;;;;;;;7.13;1.70;;;;;;;;;;5018704;28;20117;-75
2023/09/19 01:02:14;;;;;;;7.88;2.17;;;;;;;;;;5017436;28;20069;-75
2023/09/19 01:04:40;;;;;;;12.77;2.67;;;;;;;;;;5024485;28;20038;-75
2023/09/19 01:07:07;;;;;;;12.15;2.03;;;;;;;;;;5020758;28;20106;-75
2023/09/19 01:09:34;;;;;;;11.82;1.88;;;;;;;;;;5034167;28;20013;-75
2023/09/19 01:12:02;;;;;;;13.02;2.30;;;;;;;;;;5025172;28;20053;-75
2023/09/19 01:14:52;;;;;;;8.73;2.10;;;;;;;;;;5051338;28;20043;-75
2023/09/19 01:17:39;;;;;;;9.20;2.55;;;;;;;;;;5023617;28;20551;-75
2023/09/19 01:20:17;;;;;;;13.10;2.42;;;;;;;;;;5019937;28;20069;-75
2023/09/19 01:22:57;;;;;;;11.93;3.45;;;;;;;;;;5019987;28;20155;-75
2023/09/19 01:25:29;;;;;;;14.57;2.03;;;;;;;;;;5028443;28;20125;-75
2023/09/19 01:28:17;;;;;;;14.85;2.17;;;;;;;;;;5047924;28;20084;-75
2023/09/19 01:30:47;;;;;;;8.75;1.98;;;;;;;;;;5016009;28;20030;-75
2023/09/19 01:33:14;;;;;;;9.02;1.90;;;;;;;;;;5019929;28;20033;-76
2023/09/19 01:35:40;;;;;;;6.80;1.50;;;;;;;;;;5016536;28;20497;-75
2023/09/19 01:38:09;;;;;;;12.15;2.47;;;;;;;;;;5028811;28;20591;-76
2023/09/19 01:40:41;;;;;;;7.50;1.38;;;;;;;;;;5021427;28;20033;-76
2023/09/19 01:43:10;;;;;;;10.90;2.10;;;;;;;;;;5020570;28;20503;-76
2023/09/19 01:45:45;;;;;;;12.48;1.88;;;;;;;;;;5027782;28;20108;-76
2023/09/19 01:48:13;;;;;;;9.95;1.60;;;;;;;;;;5019585;28;20022;-76
2023/09/19 01:50:42;;;;;;;17.45;2.22;;;;;;;;;;5027368;28;20079;-76
2023/09/19 01:53:16;;;;;;;13.75;2.25;;;;;;;;;;5058420;28;20391;-76
2023/09/19 01:55:44;;;;;;;15.30;2.47;;;;;;;;;;5025554;28;20026;-76
2023/09/19 01:58:28;;;;;;;14.60;2.40;;;;;;;;;;5019353;28;20034;-76
2023/09/19 02:00:55;;;;;;;6.50;1.17;;;;;;;;;;5016490;28;20459;-76
2023/09/19 02:03:22;;;;;;;13.70;2.00;;;;;;;;;;5020208;28;20034;-76
2023/09/19 02:05:53;;;;;;;13.55;2.10;;;;;;;;;;5016101;28;20034;-76
2023/09/19 02:08:19;;;;;;;13.57;1.70;;;;;;;;;;5028033;28;20633;-76
2023/09/19 02:10:49;;;;;;;11.43;2.45;;;;;;;;;;5026708;28;20034;-75
2023/09/19 02:13:19;;;;;;;9.73;1.30;;;;;;;;;;5020868;28;20045;-75
2023/09/19 02:15:45;;;;;;;14.43;2.85;;;;;;;;;;5018852;28;20364;-76
2023/09/19 02:18:11;;;;;;;12.13;2.50;;;;;;;;;;5026823;28;20033;-75
2023/09/19 02:20:38;;;;;;;6.40;1.70;;;;;;;;;;5023393;28;20029;-75
2023/09/19 02:23:04;;;;;;;14.48;2.30;;;;;;;;;;5019906;28;20049;-75
2023/09/19 02:25:31;;;;;;;8.25;1.75;;;;;;;;;;5019455;28;20068;-75
2023/09/19 02:27:59;;;;;;;8.15;1.70;;;;;;;;;;5024460;28;20414;-75
2023/09/19 02:30:25;;;;;;;8.05;1.80;;;;;;;;;;5019604;28;20398;-75
2023/09/19 02:32:52;;;;;;;11.05;1.80;;;;;;;;;;5018783;28;20028;-75
2023/09/19 02:35:20;;;;;;;9.95;1.90;;;;;;;;;;5017412;28;20038;-76
2023/09/19 02:37:47;;;;;;;12.60;2.53;;;;;;;;;;5024721;28;20057;-76
2023/09/19 02:40:19;;;;;;;9.48;1.92;;;;;;;;;;5025402;28;20395;-76
2023/09/19 02:42:46;;;;;;;11.80;2.42;;;;;;;;;;5022887;28;20060;-76
2023/09/19 02:45:13;;;;;;;11.48;2.10;;;;;;;;;;5012477;28;20034;-76
2023/09/19 02:47:40;;;;;;;14.50;2.22;;;;;;;;;;5023436;28;20462;-75
2023/09/19 02:50:08;;;;;;;12.00;2.05;;;;;;;;;;5022564;28;20077;-75
2023/09/19 02:52:34;;;;;;;8.48;1.65;;;;;;;;;;5012223;28;20077;-75
2023/09/19 02:55:00;;;;;;;8.93;1.50;;;;;;;;;;5019843;28;20125;-75
2023/09/19 02:57:27;;;;;;;7.60;1.73;;;;;;;;;;5053887;28;20033;-76
2023/09/19 02:59:54;;;;;;;7.07;1.90;;;;;;;;;;5011037;28;20032;-76
2023/09/19 03:02:24;;;;;;;11.60;2.63;;;;;;;;;;5024315;28;20021;-75
2023/09/19 03:04:51;;;;;;;9.43;1.70;;;;;;;;;;5010269;28;20046;-77
2023/09/19 03:07:17;;;;;;;8.52;1.65;;;;;;;;;;5024529;28;20032;-75
2023/09/19 03:09:44;;;;;;;9.38;1.58;;;;;;;;;;5020925;28;20026;-75
2023/09/19 03:12:11;;;;;;;10.80;1.70;;;;;;;;;;5018488;28;20033;-75
2023/09/19 03:14:37;;;;;;;12.45;1.92;;;;;;;;;;5021195;28;20033;-75
2023/09/19 03:17:04;;;;;;;4.63;1.45;;;;;;;;;;5016161;28;20029;-75
2023/09/19 03:19:33;;;;;;;10.77;1.75;;;;;;;;;;5026864;28;20040;-76
2023/09/19 03:21:59;;;;;;;10.52;1.63;;;;;;;;;;5053748;28;20494;-75
2023/09/19 03:24:26;;;;;;;17.30;1.58;;;;;;;;;;5019563;28;20042;-75
2023/09/19 03:26:52;;;;;;;8.88;1.65;;;;;;;;;;5021752;28;20518;-76
2023/09/19 03:29:18;;;;;;;9.40;1.95;;;;;;;;;;5018451;28;20037;-76
2023/09/19 03:31:45;;;;;;;9.68;1.88;;;;;;;;;;5020156;28;20044;-76
2023/09/19 03:34:11;;;;;;;8.40;1.90;;;;;;;;;;5025707;28;20104;-76
2023/09/19 03:36:37;;;;;;;9.95;1.60;;;;;;;;;;5020823;28;20164;-76
2023/09/19 03:39:06;;;;;;;11.48;2.03;;;;;;;;;;5016744;28;20210;-78
2023/09/19 03:41:33;;;;;;;13.88;2.40;;;;;;;;;;5016958;28;20502;-76
2023/09/19 03:43:59;;;;;;;14.25;2.38;;;;;;;;;;5023806;28;20037;-77
2023/09/19 03:46:25;;;;;;;14.27;2.83;;;;;;;;;;5022145;28;20084;-77
2023/09/19 03:48:51;;;;;;;21.55;9.02;;;;;;;;;;5022195;28;20029;-78
2023/09/19 03:51:17;;;;;;;10.75;2.75;;;;;;;;;;5027192;28;20483;-78
2023/09/19 03:53:43;;;;;;;10.32;1.67;;;;;;;;;;5020871;28;20048;-77
2023/09/19 03:56:10;;;;;;;13.65;2.63;;;;;;;;;;5024791;28;20479;-77
2023/09/19 03:58:39;;;;;;;6.70;1.83;;;;;;;;;;5020398;28;20037;-73
2023/09/19 04:01:06;;;;;;;16.15;2.20;;;;;;;;;;5023871;28;20026;-77
2023/09/19 04:03:45;;;;;;;8.95;1.90;;;;;;;;;;5022387;28;20030;-77
2023/09/19 04:06:12;;;;;;;7.82;1.80;;;;;;;;;;5021595;28;20091;-76
2023/09/19 04:08:38;;;;;;;12.45;2.75;;;;;;;;;;5017047;28;20037;-76
2023/09/19 04:11:04;;;;;;;8.07;1.90;;;;;;;;;;5022727;28;20044;-76
2023/09/19 04:13:30;;;;;;;11.13;3.30;;;;;;;;;;5014451;28;20080;-76
2023/09/19 04:15:56;;;;;;;14.80;2.22;;;;;;;;;;5018838;28;20122;-76
2023/09/19 04:18:23;;;;;;;7.65;2.30;;;;;;;;;;5023784;28;20081;-78
2023/09/19 04:20:52;;;;;;;19.23;7.65;;;;;;;;;;5023377;28;20471;-75
2023/09/19 04:23:21;;;;;;;13.90;4.30;;;;;;;;;;5017229;28;20128;-75
2023/09/19 04:25:48;;;;;;;10.70;2.10;;;;;;;;;;5020513;28;20549;-76
2023/09/19 04:28:15;;;;;;;9.57;2.00;;;;;;;;;;5014074;28;20041;-77
2023/09/19 04:30:41;;;;;;;11.02;1.77;;;;;;;;;;5021500;28;20053;-78
2023/09/19 04:33:07;;;;;;;9.02;1.80;;;;;;;;;;5019898;28;20703;-78
2023/09/19 04:35:33;;;;;;;10.80;1.70;;;;;;;;;;5023002;28;20022;-79
2023/09/19 04:38:00;;;;;;;12.13;2.53;;;;;;;;;;5016984;28;20033;-79
2023/09/19 04:40:26;;;;;;;7.15;1.88;;;;;;;;;;5023617;28;20026;-78
2023/09/19 04:42:59;;;;;;;10.77;3.30;;;;;;;;;;5019058;28;20036;-80
2023/09/19 04:45:26;;;;;;;9.80;1.95;;;;;;;;;;5031149;28;20577;-79
2023/09/19 04:47:52;;;;;;;16.65;2.50;;;;;;;;;;5028812;28;20100;-78
2023/09/19 04:50:18;;;;;;;11.85;1.85;;;;;;;;;;5018427;28;20120;-77
2023/09/19 04:52:45;;;;;;;10.23;1.88;;;;;;;;;;5024327;28;20029;-78
2023/09/19 04:55:17;;;;;;;10.48;2.00;;;;;;;;;;5016670;28;20033;-79
2023/09/19 04:57:44;;;;;;;;;;;;;;;;;;5028023;28;20029;-79
2023/09/19 05:00:12;;;;;;;11.85;2.22;;;;;;;;;;5025406;28;19939;-79
2023/09/19 05:02:39;;;;;;;7.80;1.88;;;;;;;;;;5019910;28;20129;-79
2023/09/19 05:05:06;;;;;;;11.75;1.90;;;;;;;;;;5021681;28;20087;-79
2023/09/19 05:07:34;;;;;;;17.42;2.95;;;;;;;;;;5020691;28;20029;-80
2023/09/19 05:10:00;;;;;;;14.05;2.33;;;;;;;;;;5018785;28;20034;-80
2023/09/19 05:12:29;;;;;;;16.08;2.22;;;;;;;;;;5024362;28;20042;-79
2023/09/19 05:14:55;;;;;;;11.25;1.88;;;;;;;;;;5031211;28;20551;-80
2023/09/19 05:17:21;;;;;;;17.38;2.75;;;;;;;;;;5028442;28;20076;-78
2023/09/19 05:19:48;;;;;;;9.45;1.75;;;;;;;;;;5029716;28;20029;-85
2023/09/19 05:22:14;;;;;;;14.60;2.47;;;;;;;;;;5021933;28;20030;-79
2023/09/19 05:24:40;;;;;;;17.45;3.38;;;;;;;;;;5016885;28;20045;-77
2023/09/19 05:27:07;;;;;;;11.43;2.20;;;;;;;;;;5022143;28;20033;-77
2023/09/19 05:29:33;;;;;;;9.23;1.90;;;;;;;;;;5011343;28;20202;-77
2023/09/19 05:31:59;;;;;;;7.75;1.92;;;;;;;;;;5031952;28;20021;-77
2023/09/19 05:34:30;;;;;;;12.93;3.33;;;;;;;;;;5020868;28;20080;-74
2023/09/19 05:36:57;;;;;;;11.80;2.63;;;;;;;;;;5048804;28;20932;-76
2023/09/19 05:39:23;;;;;;;15.05;3.55;;;;;;;;;;5029447;28;20029;-75
2023/09/19 05:41:49;;;;;;;14.15;2.92;;;;;;;;;;5031669;28;20787;-77
2023/09/19 05:44:15;;;;;;;10.45;2.13;;;;;;;;;;5028863;28;20095;-79
2023/09/19 05:46:41;;;;;;;12.57;2.83;;;;;;;;;;5017413;28;20029;-77
2023/09/19 05:49:07;;;;;;;19.08;3.53;;;;;;;;;;5026720;28;20103;-77
2023/09/19 05:51:33;;;;;;;7.80;1.90;;;;;;;;;;5030839;28;20037;-78
2023/09/19 05:53:59;;;;;;;10.18;1.83;;;;;;;;;;5019671;28;20315;-80
2023/09/19 05:56:25;;;;;;;8.35;1.60;;;;;;;;;;5019473;28;20034;-79
2023/09/19 05:58:52;;;;;;;13.02;2.08;;;;;;;;;;5019125;28;20048;-78
2023/09/19 06:01:18;;;;;;;17.10;2.72;;;;;;;;;;5017388;28;20053;-77
2023/09/19 06:03:44;;;;;;;8.57;2.45;;;;;;;;;;5021214;28;20084;-81
2023/09/19 06:06:11;;;;;;;7.97;1.50;;;;;;;;;;5045988;28;20133;-81
2023/09/19 06:08:37;;;;;;;12.10;2.65;;;;;;;;;;5023208;28;20029;-79
2023/09/19 06:11:07;;;;;;;16.60;2.83;;;;;;;;;;5017667;28;20364;-76
2023/09/19 06:13:33;;;;;;;14.77;2.25;;;;;;;;;;5024413;28;20044;-81
2023/09/19 06:16:04;;;;;;;11.85;2.58;;;;;;;;;;5012628;28;20672;-79
2023/09/19 06:18:33;;;;;;;13.60;2.20;;;;;;;;;;5013324;28;20029;-79
2023/09/19 06:20:59;;;;;;;13.57;2.33;;;;;;;;;;5011170;28;20044;-79
2023/09/19 06:23:26;;;;;;;11.30;1.55;;;;;;;;;;5010407;28;20077;-78
2023/09/19 06:25:53;;;;;;;12.52;3.10;;;;;;;;;;5050761;28;20056;-79
2023/09/19 06:28:23;;;;;;;9.15;2.28;;;;;;;;;;5021656;28;20033;-77
2023/09/19 06:30:50;;;;;;;11.95;2.85;;;;;;;;;;5011562;28;20447;-77
2023/09/19 06:33:18;;;;;;;26.58;10.85;;;;;;;;;;5023378;28;20037;-75
2023/09/19 06:35:44;;;;;;;11.10;2.40;;;;;;;;;;5015414;28;20033;-76
2023/09/19 06:38:12;;;;;;;14.02;2.33;;;;;;;;;;5020472;28;20075;-77
2023/09/19 06:40:40;;;;;;;21.15;2.03;;;;;;;;;;5051909;28;20444;-76
2023/09/19 06:43:06;;;;;;;11.18;2.53;;;;;;;;;;5012153;28;20051;-77
2023/09/19 06:45:32;;;;;;;11.93;2.33;;;;;;;;;;5011514;28;20033;-77
2023/09/19 06:47:59;;;;;;;13.82;1.95;;;;;;;;;;5012085;28;20442;-78
2023/09/19 06:50:26;;;;;;;41.20;3.63;;;;;;;;;;5016467;28;20063;-77
2023/09/19 06:52:54;;;;;;;7.93;1.85;;;;;;;;;;5022372;28;20068;-72
2023/09/19 06:55:23;;;;;;;8.68;2.22;;;;;;;;;;5014661;28;20117;-76
2023/09/19 06:57:49;;;;;;;10.00;3.30;;;;;;;;;;5016023;28;20062;-75
2023/09/19 07:00:21;;;;;;;11.73;1.92;;;;;;;;;;5026797;28;20108;-76
2023/09/19 07:03:03;;;;;;;10.35;2.67;;;;;;;;;;5057076;28;20460;-77
2023/09/19 07:05:31;;;;;;;11.93;2.42;;;;;;;;;;5015768;28;20044;-78
2023/09/19 07:07:58;;;;;;;17.00;3.63;;;;;;;;;;5023368;28;20065;-76
2023/09/19 07:10:25;;;;;;;21.33;6.93;;;;;;;;;;5017511;28;20408;-72
2023/09/19 07:12:58;;;;;;;15.82;3.47;;;;;;;;;;5038581;28;20029;-73
2023/09/19 07:15:24;;;;;;;;;;;;;;;;;;5040450;28;20021;-78
2023/09/19 07:17:51;;;;;;;11.48;2.55;;;;;;;;;;5014325;28;19916;-77
2023/09/19 07:20:17;;;;;;;9.13;2.10;;;;;;;;;;5043759;28;20061;-76
2023/09/19 07:22:44;;;;;;;10.82;2.80;;;;;;;;;;5011830;28;20057;-78
2023/09/19 07:25:10;;;;;;;35.17;2.80;;;;;;;;;;5015524;28;20054;-77
2023/09/19 07:27:38;;;;;;;10.40;2.65;;;;;;;;;;5054628;28;20053;-76
2023/09/19 07:30:05;;;;;;;9.57;1.88;;;;;;;;;;5008763;28;20572;-76
2023/09/19 07:32:32;;;;;;;6.45;1.67;;;;;;;;;;5018801;28;20676;-77
2023/09/19 07:34:58;;;;;;;11.82;1.92;;;;;;;;;;5014711;28;20041;-78
2023/09/19 07:37:25;;;;;;;15.73;2.20;;;;;;;;;;5010233;28;20049;-76
2023/09/19 07:39:51;;;;;;;14.85;2.97;;;;;;;;;;5012188;28;20352;-76
2023/09/19 07:42:17;;;;;;;9.68;1.95;;;;;;;;;;5020213;28;20040;-75
2023/09/19 07:44:47;;;;;;;14.13;2.17;;;;;;;;;;5018879;28;20404;-73
2023/09/19 07:47:14;;;;;;;13.13;2.60;;;;;;;;;;5013717;28;20041;-78
2023/09/19 07:49:42;;;;;;;16.85;2.05;;;;;;;;;;5020790;28;20030;-74
2023/09/19 07:52:08;;;;;;;13.30;4.13;;;;;;;;;;5013796;28;20041;-72
2023/09/19 07:54:35;;;;;;;18.42;4.57;;;;;;;;;;5021587;28;20037;-76
2023/09/19 07:57:01;;;;;;;14.88;3.28;;;;;;;;;;5021361;28;20045;-77
2023/09/19 07:59:27;;;;;;;10.75;1.88;;;;;;;;;;5022883;28;20072;-76
2023/09/19 08:01:54;;;;;;;9.20;2.97;;;;;;;;;;5017571;28;20554;-77
2023/09/19 08:04:20;;;;;;;8.35;2.40;;;;;;;;;;5018608;28;20041;-79
2023/09/19 08:06:46;;;;;;;9.43;1.98;;;;;;;;;;5021545;28;20387;-78
2023/09/19 08:09:17;;;;;;;10.07;2.22;;;;;;;;;;5014446;28;20506;-77
2023/09/19 08:11:43;;;;;;;14.90;1.80;;;;;;;;;;5044246;28;20038;-78
2023/09/19 08:14:12;;;;;;;12.15;2.40;;;;;;;;;;5011999;28;20387;-77
2023/09/19 08:16:40;;;;;;;12.65;2.72;;;;;;;;;;5017957;28;20357;-66
2023/09/19 08:19:06;;;;;;;6.88;2.72;;;;;;;;;;5019820;28;20064;-67
2023/09/19 08:21:32;;;;;;;10.93;2.20;;;;;;;;;;5013342;28;20104;-70
2023/09/19 08:23:58;;;;;;;13.52;2.35;;;;;;;;;;5013278;28;20488;-70
2023/09/19 08:26:24;;;;;;;9.68;2.40;;;;;;;;;;5017482;28;20054;-68
2023/09/19 08:28:51;;;;;;;12.23;2.75;;;;;;;;;;5014279;28;20116;-71
2023/09/19 08:31:17;;;;;;;10.82;2.95;;;;;;;;;;5021615;28;20109;-70
2023/09/19 08:33:49;;;;;;;12.65;2.25;;;;;;;;;;5018603;28;20100;-73
2023/09/19 08:36:15;;;;;;;19.23;3.97;;;;;;;;;;5022954;28;20033;-71
2023/09/19 08:38:41;;;;;;;8.00;2.33;;;;;;;;;;5017851;28;20052;-69
2023/09/19 08:41:08;;;;;;;10.48;2.40;;;;;;;;;;5028055;28;20475;-66
2023/09/19 08:43:34;;;;;;;13.55;2.80;;;;;;;;;;5013654;28;20136;-70
2023/09/19 08:46:19;;;;;;;11.52;2.53;;;;;;;;;;5017413;28;20046;-66
2023/09/19 08:48:48;;;;;;;20.83;2.30;;;;;;;;;;5015616;28;20064;-67
2023/09/19 08:51:27;;;;;;;12.95;2.45;;;;;;;;;;5015810;28;20026;-66
2023/09/19 08:54:00;;;;;;;15.70;2.45;;;;;;;;;;5012601;28;20045;-70
2023/09/19 08:56:27;;;;;;;31.20;3.28;;;;;;;;;;5025210;28;20025;-69
2023/09/19 08:59:01;;;;;;;26.50;4.22;;;;;;;;;;5017753;28;20084;-68
2023/09/19 09:01:28;;;;;;;14.23;2.65;;;;;;;;;;5019923;28;20033;-66
2023/09/19 09:03:54;;;;;;;13.45;2.40;;;;;;;;;;5020591;28;20103;-66
2023/09/19 09:06:21;;;;;;;16.52;3.17;;;;;;;;;;5021721;28;20080;-66
2023/09/19 09:08:49;;;;;;;29.00;2.90;;;;;;;;;;5018839;28;20376;-69
2023/09/19 09:11:17;;;;;;;17.30;3.22;;;;;;;;;;5019773;28;20663;-67
2023/09/19 09:13:44;;;;;;;9.82;3.17;;;;;;;;;;5018075;28;20435;-66
2023/09/19 09:16:10;;;;;;;18.92;2.50;;;;;;;;;;5020990;28;20121;-66
2023/09/19 09:18:37;;;;;;;16.42;3.17;;;;;;;;;;5020595;28;20022;-70
2023/09/19 09:21:06;;;;;;;17.05;4.00;;;;;;;;;;5049151;28;20049;-72
2023/09/19 09:23:32;;;;;;;11.93;2.35;;;;;;;;;;5014423;28;20041;-72
2023/09/19 09:26:02;;;;;;;13.70;2.67;;;;;;;;;;5014993;28;20073;-69
2023/09/19 09:28:30;;;;;;;24.10;10.15;;;;;;;;;;5020565;28;20336;-71
2023/09/19 09:30:57;;;;;;;16.30;5.32;;;;;;;;;;5022191;28;20044;-70
2023/09/19 09:33:24;;;;;;;28.23;12.40;;;;;;;;;;5029241;28;20075;-70
2023/09/19 09:35:58;;;;;;;13.93;4.65;;;;;;;;;;5022151;28;20022;-72
2023/09/19 09:38:27;;;;;;;12.55;2.80;;;;;;;;;;5048380;28;20044;-73
2023/09/19 09:40:58;;;;;;;15.23;3.10;;;;;;;;;;5019876;28;20108;-75
2023/09/19 09:43:30;;;;;;;32.83;4.27;;;;;;;;;;5015202;28;20036;-76
2023/09/19 09:46:58;;;;;;;204.20;15.95;;;;;;;;;;5018794;28;20048;-70
2023/09/19 09:49:19;;;;;;;425.92;37.33;;;;;;;;;;5011106;28;20049;-69
2023/09/19 09:51:57;;;;;;;217.52;15.10;;;;;;;;;;5020459;28;20610;-70
2023/09/19 09:54:38;;;;;;;175.63;14.70;;;;;;;;;;5019615;28;20048;-76
2023/09/19 09:57:13;;;;;;;222.82;14.65;;;;;;;;;;5016333;28;20026;-71
2023/09/19 09:59:58;;;;;;;56.58;6.15;;;;;;;;;;5014503;28;20042;-71
2023/09/19 10:02:32;;;;;;;92.38;7.18;;;;;;;;;;5014031;28;20065;-69
2023/09/19 10:05:20;;;;;;;131.35;12.35;;;;;;;;;;5024707;28;20033;-70
2023/09/19 10:07:49;;;;;;;98.47;7.38;;;;;;;;;;5028392;28;20087;-72
2023/09/19 10:10:16;;;;;;;74.93;11.15;;;;;;;;;;5020987;28;20029;-70
2023/09/19 10:12:51;;;;;;;117.78;19.52;;;;;;;;;;5053609;28;20017;-70
2023/09/19 10:15:20;;;;;;;92.32;18.90;;;;;;;;;;5016532;28;20113;-71
2023/09/19 10:17:47;;;;;;;75.68;11.07;;;;;;;;;;5015762;28;20045;-69
2023/09/19 10:22:59;;;;;;;200.27;19.42;;;;;;;;;;5016877;28;20043;-71
2023/09/19 10:25:29;;;;;;;178.80;17.30;;;;;;;;;;5013142;28;20077;-70
2023/09/19 10:27:57;;;;;;;57.70;7.57;;;;;;;;;;5020820;28;20053;-72
2023/09/19 10:30:24;;;;;;;25.50;5.22;;;;;;;;;;5017163;28;20124;-68
2023/09/19 10:33:03;;;;;;;15.65;3.03;;;;;;;;;;5015495;28;20157;-79
2023/09/19 10:35:29;;;;;;;19.98;3.92;;;;;;;;;;5047400;28;20037;-76
2023/09/19 10:38:01;;;;;;;15.23;3.38;;;;;;;;;;5014250;28;20030;-79
2023/09/19 10:40:30;;;;;;;14.95;2.67;;;;;;;;;;5014005;28;20471;-79
2023/09/19 10:43:05;;;;;;;11.57;2.50;;;;;;;;;;5014286;28;20108;-78
2023/09/19 10:45:31;;;;;;;18.35;3.65;;;;;;;;;;5018605;28;20065;-79
2023/09/19 10:47:58;;;;;;;13.02;3.42;;;;;;;;;;5017469;28;20480;-78
2023/09/19 10:50:25;;;;;;;15.80;3.38;;;;;;;;;;5025030;28;20503;-78
2023/09/19 10:52:58;;;;;;;16.83;3.10;;;;;;;;;;5015262;28;20022;-83
2023/09/19 10:55:27;;;;;;;15.48;3.45;;;;;;;;;;5045213;28;20041;-78
2023/09/19 10:58:10;;;;;;;14.20;3.47;;;;;;;;;;5051664;28;20044;-75
2023/09/19 11:00:55;;;;;;;26.65;3.72;;;;;;;;;;5021889;28;20128;-77
2023/09/19 11:03:31;;;;;;;17.60;2.58;;;;;;;;;;5020551;28;20522;-81
2023/09/19 11:06:11;;;;;;;18.85;3.05;;;;;;;;;;5021384;28;20060;-75
2023/09/19 11:08:57;;;;;;;11.25;2.88;;;;;;;;;;5028709;28;20395;-75
2023/09/19 11:11:52;;;;;;;23.60;4.30;;;;;;;;;;5015367;28;20034;-78
2023/09/19 11:14:24;;;;;;;22.65;3.15;;;;;;;;;;5019666;28;20415;-76
2023/09/19 11:17:06;;;;;;;15.75;2.55;;;;;;;;;;5024181;28;20048;-75
2023/09/19 11:19:32;;;;;;;;;;;;;;;;;;5017818;28;20061;-74
2023/09/19 11:21:59;;;;;;;22.33;3.47;;;;;;;;;;5043879;28;20386;-74
2023/09/19 11:24:30;;;;;;;12.52;2.75;;;;;;;;;;5016264;28;20103;-77
2023/09/19 11:27:13;;;;;;;12.25;2.55;;;;;;;;;;5010828;28;20049;-77
2023/09/19 11:29:40;;;;;;;19.95;3.20;;;;;;;;;;5012581;28;20026;-78
2023/09/19 11:32:06;;;;;;;14.13;2.67;;;;;;;;;;5014565;28;20094;-80
2023/09/19 11:34:45;;;;;;;14.15;2.25;;;;;;;;;;5011318;28;20038;-77
2023/09/19 11:37:14;;;;;;;14.15;3.42;;;;;;;;;;5018233;28;20029;-75
2023/09/19 11:39:59;;;;;;;65.25;6.20;;;;;;;;;;5013253;28;20037;-69
2023/09/19 11:42:47;;;;;;;86.72;7.20;;;;;;;;;;5021002;28;20029;-75
2023/09/19 11:45:32;;;;;;;97.03;7.95;;;;;;;;;;5016918;28;20187;-75
2023/09/19 11:47:59;;;;;;;74.78;7.10;;;;;;;;;;5012678;28;20034;-75
2023/09/19 11:50:26;;;;;;;88.38;10.38;;;;;;;;;;5021798;28;20033;-72
2023/09/19 11:52:52;;;;;;;22.85;4.20;;;;;;;;;;5016265;28;20090;-71
2023/09/19 11:55:21;;;;;;;27.02;3.95;;;;;;;;;;5021877;28;20283;-72
2023/09/19 11:57:50;;;;;;;135.07;13.10;;;;;;;;;;5022166;28;20029;-77
2023/09/19 12:00:27;;;;;;;134.13;12.63;;;;;;;;;;5022974;28;20028;-77
2023/09/19 12:02:56;;;;;;;90.80;8.90;;;;;;;;;;5022515;28;20030;-84
2023/09/19 12:05:33;;;;;;;40.10;4.32;;;;;;;;;;5017598;28;20042;-82
2023/09/19 12:07:59;;;;;;;238.85;14.75;;;;;;;;;;5027104;28;20042;-78
2023/09/19 12:10:26;;;;;;;53.25;5.85;;;;;;;;;;5022738;28;20528;-83
2023/09/19 12:12:53;;;;;;;31.40;4.10;;;;;;;;;;5022814;28;20025;-79
2023/09/19 12:15:34;;;;;;;24.95;3.72;;;;;;;;;;5026989;28;20033;-74
2023/09/19 12:18:00;;;;;;;30.15;3.75;;;;;;;;;;5021569;28;20479;-82
2023/09/19 12:20:41;;;;;;;48.60;4.82;;;;;;;;;;5024651;28;20033;-78
2023/09/19 12:23:14;;;;;;;87.68;7.63;;;;;;;;;;5018754;28;20037;-78
2023/09/19 12:25:47;;;;;;;72.25;4.65;;;;;;;;;;5024334;28;20143;-74
2023/09/19 12:28:14;;;;;;;55.97;4.47;;;;;;;;;;5019640;28;20045;-73
2023/09/19 12:30:41;;;;;;;29.90;2.92;;;;;;;;;;5021034;28;20034;-76
2023/09/19 12:33:15;;;;;;;26.15;3.35;;;;;;;;;;5020624;28;20191;-76
2023/09/19 12:35:44;;;;;;;28.42;4.10;;;;;;;;;;5026493;28;20475;-73
2023/09/19 12:38:12;;;;;;;17.67;2.47;;;;;;;;;;5016668;28;20029;-75
2023/09/19 12:40:38;;;;;;;10.25;2.17;;;;;;;;;;5018458;28;20504;-75
2023/09/19 12:43:05;;;;;;;32.28;3.35;;;;;;;;;;5015353;28;20113;-74
2023/09/19 12:45:34;;;;;;;32.72;4.03;;;;;;;;;;5015555;28;20060;-74
2023/09/19 12:48:22;;;;;;;49.50;7.10;;;;;;;;;;5013321;28;20068;-78
2023/09/19 12:51:05;;;;;;;31.08;5.82;;;;;;;;;;5026006;28;20391;-76
2023/09/19 12:53:33;;;;;;;15.23;3.40;;;;;;;;;;5011934;28;20091;-77
2023/09/19 12:55:59;;;;;;;18.58;3.10;;;;;;;;;;5013767;28;20037;-73
2023/09/19 12:58:26;;;;;;;42.50;3.63;;;;;;;;;;5017732;28;20041;-78
2023/09/19 13:00:52;;;;;;;93.90;4.82;;;;;;;;;;5017813;28;20021;-80
2023/09/19 13:03:22;;;;;;;46.97;5.10;;;;;;;;;;5022463;28;20399;-76
2023/09/19 13:05:53;;;;;;;45.30;4.43;;;;;;;;;;5024558;28;20475;-79
2023/09/19 13:08:30;;;;;;;28.88;3.13;;;;;;;;;;5019251;28;20036;-81
2023/09/19 13:11:00;;;;;;;26.45;4.40;;;;;;;;;;5018569;28;20672;-80
2023/09/19 13:13:27;;;;;;;29.23;2.55;;;;;;;;;;5012413;28;20044;-78
2023/09/19 13:15:54;;;;;;;24.67;2.38;;;;;;;;;;5022634;28;20026;-78
2023/09/19 13:18:20;;;;;;;11.82;1.83;;;;;;;;;;5018273;28;20088;-79
2023/09/19 13:21:06;;;;;;;10.18;2.25;;;;;;;;;;5017601;28;20036;-81
2023/09/19 13:23:32;;;;;;;11.25;1.92;;;;;;;;;;5022879;28;20032;-85
2023/09/19 13:25:58;;;;;;;20.58;2.28;;;;;;;;;;5017960;28;20148;-73
2023/09/19 13:28:24;;;;;;;17.60;2.97;;;;;;;;;;5022053;28;20471;-81
2023/09/19 13:30:50;;;;;;;22.55;4.95;;;;;;;;;;5028503;28;20052;-74
2023/09/19 13:33:20;;;;;;;15.82;3.38;;;;;;;;;;5023915;28;20479;-74
2023/09/19 13:35:48;;;;;;;17.90;2.75;;;;;;;;;;5012475;28;20542;-72
2023/09/19 13:38:14;;;;;;;11.55;1.92;;;;;;;;;;5021308;28;20095;-77
2023/09/19 13:40:41;;;;;;;11.07;2.22;;;;;;;;;;5024943;28;20034;-76
2023/09/19 13:43:08;;;;;;;39.65;4.80;;;;;;;;;;5019602;28;20037;-78
2023/09/19 13:45:34;;;;;;;23.80;2.95;;;;;;;;;;5014030;28;20030;-75
2023/09/19 13:48:00;;;;;;;11.35;2.70;;;;;;;;;;5045385;28;20025;-77
2023/09/19 13:50:28;;;;;;;34.33;5.55;;;;;;;;;;5018267;28;20029;-84
2023/09/19 13:52:55;;;;;;;17.50;2.78;;;;;;;;;;5014577;28;20033;-76
2023/09/19 13:55:21;;;;;;;35.47;3.42;;;;;;;;;;5016417;28;20041;-78
2023/09/19 13:57:50;;;;;;;73.60;5.90;;;;;;;;;;5014677;28;20163;-74
2023/09/19 14:00:16;;;;;;;43.63;4.50;;;;;;;;;;5019388;28;20108;-78
2023/09/19 14:02:47;;;;;;;44.78;4.68;;;;;;;;;;5025161;28;20395;-77
2023/09/19 14:05:14;;;;;;;17.55;2.67;;;;;;;;;;5025219;28;20079;-79
2023/09/19 14:07:41;;;;;;;13.13;1.88;;;;;;;;;;5023622;28;20025;-78
2023/09/19 14:10:10;;;;;;;18.98;2.67;;;;;;;;;;5014516;28;20038;-79
2023/09/19 14:12:43;;;;;;;22.38;2.70;;;;;;;;;;5020587;28;20025;-85
2023/09/19 14:15:10;;;;;;;18.05;2.17;;;;;;;;;;5018394;28;20037;-78
2023/09/19 14:17:36;;;;;;;11.35;1.95;;;;;;;;;;5017741;28;20077;-79
2023/09/19 14:20:02;;;;;;;15.60;3.10;;;;;;;;;;5019074;28;20026;-76
2023/09/19 14:22:28;;;;;;;11.07;1.42;;;;;;;;;;5016099;28;20053;-80
2023/09/19 14:24:54;;;;;;;73.80;5.78;;;;;;;;;;5014996;28;20054;-73
2023/09/19 14:27:20;;;;;;;16.67;1.98;;;;;;;;;;5016932;28;20033;-76
2023/09/19 14:29:48;;;;;;;11.68;2.20;;;;;;;;;;5014109;28;20034;-83
2023/09/19 14:32:14;;;;;;;15.98;2.50;;;;;;;;;;5021454;28;20057;-82
2023/09/19 14:34:42;;;;;;;10.85;1.90;;;;;;;;;;5014562;28;20644;-82
2023/09/19 14:37:11;;;;;;;9.38;2.03;;;;;;;;;;5025729;28;20029;-81
2023/09/19 14:39:40;;;;;;;7.82;1.80;;;;;;;;;;5021041;28;20037;-80
2023/09/19 14:42:08;;;;;;;11.05;1.55;;;;;;;;;;5044327;28;20455;-79
2023/09/19 14:44:35;;;;;;;12.82;2.13;;;;;;;;;;5020465;28;20069;-78